Time;durP1;ratioP1;P1;durP2;ratioP2;P2;SDS_P1;SDS_P2;PMS_P1;PMS_P2;Temp;Humidity;BMP_temperature;BMP_pressure;BME280_temperature;BME280_humidity;BME280_pressure;Samples;Min_cycle;Max_cycle;Signal;HPM_P1;HPM_P2
2022/06/29 00:04:36;;;;;;;;;;;;;;;21.69;61.50;95571.25;10492158;28;1924;-57
2022/06/29 00:09:36;;;;;;;;;;;;;;;21.61;61.31;95564.75;10494869;28;1826;-54
2022/06/29 00:14:41;;;;;;;;;;;;;;;21.44;62.04;95558.38;10462466;28;1910;-58
2022/06/29 00:19:42;;;;;;;;;;;;;;;21.33;62.58;95546.41;10477456;28;1788;-58
2022/06/29 00:24:42;;;;;;;;;;;;;;;21.20;62.68;95547.09;10473883;28;1823;-57
2022/06/29 00:29:42;;;;;;;;;;;;;;;21.24;62.81;95542.81;10478933;28;1831;-57
2022/06/29 00:34:47;;;;;;;;;;;;;;;21.26;62.76;95524.88;10479603;28;1973;-58
2022/06/29 00:39:47;;;;;;;;;;;;;;;21.32;62.48;95515.81;10486609;28;1808;-57
2022/06/29 00:44:47;;;;;;;;;;;;;;;21.41;62.06;95522.03;10491203;28;2134;-58
2022/06/29 00:49:48;;;;;;;;;;;;;;;21.42;61.97;95518.31;10460692;28;2101;-58
2022/06/29 00:54:52;;;;;;;;;;;;;;;21.42;61.98;95510.41;10462401;28;2013;-59
2022/06/29 00:59:55;;;;;;;;;;;;;;;21.37;61.89;95505.22;10476036;28;2010;-56
2022/06/29 01:04:55;;;;;;;;;;;;;;;21.34;62.07;95511.06;10455105;28;1865;-58
2022/06/29 01:10:00;;;;;;;;;;;;;;;21.31;62.35;95501.84;10477262;28;1979;-59
2022/06/29 01:15:01;;;;;;;;;;;;;;;21.41;62.15;95511.50;10472216;28;2030;-59
2022/06/29 01:20:10;;;;;;;;;;;;;;;21.32;62.29;95536.91;10473685;28;1957;-57
2022/06/29 01:25:17;;;;;;;;;;;;;;;21.19;62.68;95556.84;10466023;28;2161;-59
2022/06/29 01:30:20;;;;;;;;;;;;;;;21.15;62.81;95534.75;10475629;28;1983;-55
2022/06/29 01:35:23;;;;;;;;;;;;;;;21.15;62.89;95520.78;10472590;28;1995;-59
2022/06/29 01:40:37;;;;;;;;;;;;;;;21.18;62.60;95497.28;10483735;28;2201;-56
2022/06/29 01:45:38;;;;;;;;;;;;;;;21.13;62.81;95483.38;10475094;28;1904;-56
2022/06/29 01:50:39;;;;;;;;;;;;;;;21.13;62.81;95483.38;10453811;28;1890;-55
2022/06/29 01:55:40;;;;;;;;;;;;;;;21.02;63.26;95461.63;10456455;28;1971;-58
2022/06/29 02:00:40;;;;;;;;;;;;;;;21.10;63.25;95454.97;10470147;28;1974;-56
2022/06/29 02:05:40;;;;;;;;;;;;;;;21.23;62.65;95435.78;10461440;28;2050;-57
2022/06/29 02:10:41;;;;;;;;;;;;;;;21.50;61.74;95436.72;10457321;28;1995;-57
2022/06/29 02:15:43;;;;;;;;;;;;;;;21.42;62.04;95460.31;10473194;28;2015;-59
2022/06/29 02:20:43;;;;;;;;;;;;;;;21.44;62.10;95505.63;10469992;28;1896;-58
2022/06/29 02:25:43;;;;;;;;;;;;;;;21.25;62.41;95536.47;10472048;28;1920;-57
2022/06/29 02:36:02;;;;;;;;;;;;;;;21.23;62.45;95504.34;10473580;28;2027;-57
2022/06/29 02:41:03;;;;;;;;;;;;;;;21.12;62.94;95502.91;10451826;28;1955;-55
2022/06/29 02:46:03;;;;;;;;;;;;;;;21.08;62.57;95483.44;10473068;28;1971;-56
2022/06/29 02:51:06;;;;;;;;;;;;;;;21.06;62.64;95473.97;10454033;28;2028;-53
2022/06/29 02:56:06;;;;;;;;;;;;;;;21.26;62.04;95451.84;10470455;28;1979;-54
2022/06/29 03:01:07;;;;;;;;;;;;;;;21.35;61.89;95473.09;10473838;28;2189;-56
2022/06/29 03:06:07;;;;;;;;;;;;;;;21.52;61.21;95458.31;10470792;28;1900;-57
2022/06/29 03:11:07;;;;;;;;;;;;;;;21.47;61.35;95465.53;10452613;28;1928;-56
2022/06/29 03:16:08;;;;;;;;;;;;;;;21.44;61.09;95466.88;10446902;28;1948;-58
2022/06/29 03:21:08;;;;;;;;;;;;;;;21.31;61.71;95486.03;10480614;28;1926;-54
2022/06/29 03:26:09;;;;;;;;;;;;;;;21.26;61.60;95482.69;10463201;28;1890;-54
2022/06/29 03:31:09;;;;;;;;;;;;;;;21.32;61.64;95476.28;10490081;28;2014;-56
2022/06/29 03:36:09;;;;;;;;;;;;;;;21.41;61.08;95475.34;10479728;28;2096;-56
2022/06/29 03:41:10;;;;;;;;;;;;;;;21.46;60.95;95487.69;10478459;28;2022;-59
2022/06/29 03:46:10;;;;;;;;;;;;;;;21.38;61.05;95504.94;10480422;28;1924;-57
2022/06/29 03:51:11;;;;;;;;;;;;;;;21.44;61.04;95497.72;10476422;28;1916;-56
2022/06/29 03:56:11;;;;;;;;;;;;;;;21.30;61.11;95497.66;10472283;28;1919;-57
2022/06/29 04:01:12;;;;;;;;;;;;;;;21.29;61.11;95508.50;10479031;28;1976;-56
2022/06/29 04:06:13;;;;;;;;;;;;;;;21.28;61.42;95505.06;10479759;28;1923;-58
2022/06/29 04:16:32;;;;;;;;;;;;;;;21.35;60.94;95500.22;10464833;28;2319;-58
2022/06/29 04:21:34;;;;;;;;;;;;;;;21.44;60.53;95505.63;10474453;28;1836;-57
2022/06/29 04:26:34;;;;;;;;;;;;;;;21.45;60.85;95505.34;10485364;28;1878;-58
2022/06/29 04:31:34;;;;;;;;;;;;;;;21.48;60.81;95502.16;10482020;28;1797;-59
2022/06/29 04:36:36;;;;;;;;;;;;;;;21.49;60.78;95508.22;10469222;28;1964;-57
2022/06/29 04:41:37;;;;;;;;;;;;;;;21.48;61.03;95510.06;10477081;28;1897;-57
2022/06/29 04:46:37;;;;;;;;;;;;;;;21.47;61.06;95516.44;10472152;28;1842;-57
2022/06/29 04:51:37;;;;;;;;;;;;;;;21.46;61.35;95508.78;10473175;28;1845;-56
2022/06/29 04:56:37;;;;;;;;;;;;;;;21.46;61.05;95493.75;10453884;28;1945;-58
2022/06/29 05:01:38;;;;;;;;;;;;;;;21.47;61.04;95497.19;10450759;28;1774;-58
2022/06/29 05:06:38;;;;;;;;;;;;;;;21.51;60.83;95471.81;10487997;28;1770;-59
2022/06/29 05:11:38;;;;;;;;;;;;;;;21.54;61.00;95490.47;10462254;28;1928;-59
2022/06/29 05:16:39;;;;;;;;;;;;;;;21.57;60.95;95495.19;10469866;28;1906;-56
2022/06/29 05:21:41;;;;;;;;;;;;;;;21.56;61.08;95501.50;10471607;28;1887;-57
2022/06/29 05:26:42;;;;;;;;;;;;;;;21.58;61.16;95485.41;10447829;28;1682;-56
2022/06/29 05:31:42;;;;;;;;;;;;;;;21.61;61.11;95476.91;10470318;28;1849;-58
2022/06/29 05:36:42;;;;;;;;;;;;;;;21.60;60.83;95478.78;10460639;28;1977;-58
2022/06/29 05:41:45;;;;;;;;;;;;;;;21.59;60.79;95471.16;10467243;28;2167;-58
2022/06/29 05:46:45;;;;;;;;;;;;;;;21.59;60.78;95465.88;10433313;28;1907;-56
2022/06/29 05:51:46;;;;;;;;;;;;;;;21.77;60.76;95462.44;10443639;28;1883;-59
2022/06/29 05:56:46;;;;;;;;;;;;;;;21.96;59.60;95449.22;10480516;28;1909;-57
2022/06/29 06:01:47;;;;;;;;;;;;;;;22.09;58.98;95445.84;10458691;28;1868;-57
2022/06/29 06:06:47;;;;;;;;;;;;;;;22.18;58.75;95458.09;10458070;28;1831;-60
2022/06/29 06:11:48;;;;;;;;;;;;;;;22.27;58.50;95460.84;10457824;28;1700;-59
2022/06/29 06:16:48;;;;;;;;;;;;;;;22.33;57.83;95465.75;10448955;28;1952;-57
2022/06/29 06:21:49;;;;;;;;;;;;;;;22.38;57.55;95473.56;10490860;28;1800;-55
2022/06/29 06:26:49;;;;;;;;;;;;;;;22.44;57.20;95477.69;10468980;28;1868;-58
2022/06/29 06:31:50;;;;;;;;;;;;;;;22.48;56.98;95475.25;10472216;28;1848;-55
2022/06/29 06:36:50;;;;;;;;;;;;;;;22.53;56.80;95488.38;10470450;28;1951;-56
2022/06/29 06:41:50;;;;;;;;;;;;;;;22.57;56.49;95502.56;10467143;28;2351;-56
2022/06/29 06:46:51;;;;;;;;;;;;;;;22.60;56.49;95521.31;10478051;28;1815;-53
2022/06/29 06:51:51;;;;;;;;;;;;;;;22.64;56.31;95514.34;10479729;28;1837;-58
2022/06/29 06:56:52;;;;;;;;;;;;;;;22.67;56.11;95524.31;10469260;28;1898;-57
2022/06/29 07:01:53;;;;;;;;;;;;;;;22.73;56.04;95532.16;10480919;28;1881;-58
2022/06/29 07:06:53;;;;;;;;;;;;;;;22.74;55.83;95533.72;10479562;28;1684;-56
2022/06/29 07:11:53;;;;;;;;;;;;;;;22.78;55.90;95553.19;10477118;28;1827;-57
2022/06/29 07:16:54;;;;;;;;;;;;;;;22.80;55.77;95553.69;10493009;28;1938;-57
2022/06/29 07:21:54;;;;;;;;;;;;;;;22.83;55.84;95545.19;10500431;28;1860;-55
2022/06/29 07:26:56;;;;;;;;;;;;;;;22.85;55.69;95561.53;10480636;28;1825;-56
2022/06/29 07:31:56;;;;;;;;;;;;;;;22.87;55.52;95551.47;10481060;28;1957;-55
2022/06/29 07:36:57;;;;;;;;;;;;;;;22.89;55.59;95541.38;10497559;28;1890;-58
2022/06/29 07:41:57;;;;;;;;;;;;;;;22.92;55.16;95540.78;10459975;28;2024;-55
2022/06/29 07:46:58;;;;;;;;;;;;;;;22.94;54.95;95538.63;10490703;28;1836;-58
2022/06/29 07:51:58;;;;;;;;;;;;;;;22.96;54.89;95541.75;10475940;28;1928;-56
2022/06/29 07:56:58;;;;;;;;;;;;;;;22.97;55.09;95532.78;10488479;28;1968;-59
2022/06/29 08:01:58;;;;;;;;;;;;;;;22.99;55.05;95517.41;10476108;28;1869;-60
2022/06/29 08:06:59;;;;;;;;;;;;;;;23.00;54.83;95503.13;10461631;28;1795;-55
2022/06/29 08:11:59;;;;;;;;;;;;;;;23.00;54.58;95488.00;10488582;28;1846;-54
2022/06/29 08:16:59;;;;;;;;;;;;;;;23.03;54.74;95482.16;10458843;28;2112;-57
2022/06/29 08:22:00;;;;;;;;;;;;;;;23.05;54.70;95497.72;10496973;28;1890;-57
2022/06/29 08:27:00;;;;;;;;;;;;;;;23.07;54.48;95516.72;10475644;28;1800;-55
2022/06/29 08:32:00;;;;;;;;;;;;;;;23.10;54.26;95532.00;10481825;28;1886;-58
2022/06/29 08:37:01;;;;;;;;;;;;;;;23.12;54.44;95524.56;10477049;28;1914;-58
2022/06/29 08:42:03;;;;;;;;;;;;;;;23.14;54.22;95519.75;10475050;28;2304;-59
2022/06/29 08:47:04;;;;;;;;;;;;;;;23.16;54.41;95522.88;10497229;28;1800;-57
2022/06/29 08:52:04;;;;;;;;;;;;;;;23.17;54.33;95525.22;10463170;28;1867;-57
2022/06/29 08:57:05;;;;;;;;;;;;;;;23.18;54.13;95520.72;10491132;28;2028;-56
2022/06/29 09:02:05;;;;;;;;;;;;;;;23.20;54.27;95521.22;10474428;28;1806;-59
2022/06/29 09:07:05;;;;;;;;;;;;;;;23.22;53.95;95513.78;10494378;28;1815;-58
2022/06/29 09:12:05;;;;;;;;;;;;;;;23.22;53.85;95513.78;10485732;28;1855;-56
2022/06/29 09:17:06;;;;;;;;;;;;;;;23.24;53.92;95516.91;10457973;28;2158;-59
2022/06/29 09:22:07;;;;;;;;;;;;;;;23.25;53.75;95518.44;10494135;28;1819;-56
2022/06/29 09:27:08;;;;;;;;;;;;;;;23.26;53.88;95515.53;10457950;28;1940;-53
2022/06/29 09:32:10;;;;;;;;;;;;;;;23.28;53.85;95504.66;10490580;28;1820;-58
2022/06/29 09:37:20;;;;;;;;;;;;;;;23.30;53.59;95511.22;10474241;28;1969;-57
2022/06/29 09:42:20;;;;;;;;;;;;;;;23.31;53.69;95514.63;10470756;28;2020;-58
2022/06/29 09:47:21;;;;;;;;;;;;;;;23.31;53.51;95518.06;10457622;28;1898;-56
2022/06/29 09:52:22;;;;;;;;;;;;;;;23.32;53.75;95514.38;10492355;28;2011;-56
2022/06/29 09:57:23;;;;;;;;;;;;;;;23.35;53.37;95510.34;10488175;28;2160;-58
2022/06/29 10:02:40;;;;;;;;;;;;;;;23.35;53.54;95510.34;10475649;28;1955;-55
2022/06/29 10:07:41;;;;;;;;;;;;;;;23.37;53.62;95510.81;10472674;28;1794;-54
2022/06/29 10:18:18;;;;;;;;;;;;;;;23.39;54.03;95508.66;10488142;28;1976;-57
2022/06/29 10:23:37;;;;;;;;;;;;;;;23.40;53.70;95505.75;10490686;28;2003;-58
2022/06/29 10:28:38;;;;;;;;;;;;;;;23.42;53.43;95500.16;10476120;28;2070;-55
2022/06/29 10:33:39;;;;;;;;;;;;;;;23.43;53.16;95499.06;10496074;28;1913;-59
2022/06/29 10:38:55;;;;;;;;;;;;;;;23.47;53.24;95496.63;10497815;28;1992;-58
2022/06/29 10:43:56;;;;;;;;;;;;;;;23.47;53.19;95494.75;10492871;28;1863;-58
2022/06/29 10:49:17;;;;;;;;;;;;;;;23.48;52.85;95493.66;10459977;28;1833;-59
2022/06/29 10:54:27;;;;;;;;;;;;;;;23.49;53.25;95486.50;10495739;28;1991;-58
2022/06/29 10:59:34;;;;;;;;;;;;;;;23.51;53.32;95493.09;10493801;28;1835;-59
2022/06/29 11:04:34;;;;;;;;;;;;;;;23.53;53.48;95484.84;10459172;28;1817;-56
2022/06/29 11:20:22;;;;;;;;;;;;;;;23.58;53.69;95461.69;10494658;28;1847;-56
2022/06/29 11:25:22;;;;;;;;;;;;;;;23.63;53.29;95456.28;10476202;28;2221;-57
2022/06/29 11:30:24;;;;;;;;;;;;;;;23.62;53.52;95449.41;10462721;28;1842;-57
2022/06/29 11:35:27;;;;;;;;;;;;;;;23.63;53.47;95455.50;10496957;28;1905;-55
2022/06/29 11:40:35;;;;;;;;;;;;;;;23.65;53.27;95455.97;10492747;28;1835;-56
2022/06/29 11:45:44;;;;;;;;;;;;;;;23.66;53.31;95460.97;10453846;28;1807;-58
2022/06/29 11:50:48;;;;;;;;;;;;;;;23.70;53.11;95464.56;10490898;28;1776;-58
2022/06/29 11:55:50;;;;;;;;;;;;;;;23.72;52.97;95475.66;10450069;28;1965;-60
2022/06/29 12:00:53;;;;;;;;;;;;;;;23.72;52.90;95464.31;10463275;28;1937;-56
2022/06/29 12:05:55;;;;;;;;;;;;;;;23.74;53.32;95462.91;10473406;28;1832;-57
2022/06/29 12:10:56;;;;;;;;;;;;;;;23.74;53.26;95462.13;10488117;28;1848;-56
2022/06/29 12:15:56;;;;;;;;;;;;;;;23.75;53.34;95469.75;10492307;28;1915;-56
2022/06/29 12:20:57;;;;;;;;;;;;;;;23.72;52.95;95464.31;10472582;28;1857;-59
2022/06/29 12:25:58;;;;;;;;;;;;;;;23.69;52.93;95470.97;10489039;28;2054;-59
2022/06/29 12:31:00;;;;;;;;;;;;;;;23.72;53.06;95477.53;10454771;28;1944;-59
2022/06/29 12:36:00;;;;;;;;;;;;;;;23.73;52.94;95460.56;10491044;28;1983;-58
2022/06/29 12:41:01;;;;;;;;;;;;;;;23.77;52.88;95467.59;10478033;28;1831;-57
2022/06/29 12:46:01;;;;;;;;;;;;;;;23.81;52.73;95470.44;10474990;28;2217;-58
2022/06/29 12:51:02;;;;;;;;;;;;;;;23.82;52.55;95472.00;10473899;28;1855;-59
2022/06/29 12:56:03;;;;;;;;;;;;;;;23.83;52.81;95461.09;10476710;28;1923;-59
2022/06/29 13:01:03;;;;;;;;;;;;;;;23.88;52.75;95471.59;10459594;28;2244;-58
2022/06/29 13:06:03;;;;;;;;;;;;;;;23.85;52.58;95460.78;10458674;28;2269;-57
2022/06/29 13:11:05;;;;;;;;;;;;;;;23.87;52.62;95471.88;10474809;28;1821;-58
2022/06/29 13:16:05;;;;;;;;;;;;;;;23.85;52.80;95464.22;10466135;28;1906;-58
2022/06/29 13:21:05;;;;;;;;;;;;;;;23.86;52.84;95465.81;10458169;28;2111;-55
2022/06/29 13:26:07;;;;;;;;;;;;;;;23.87;52.70;95462.06;10453155;28;1834;-59
2022/06/29 13:31:07;;;;;;;;;;;;;;;23.89;52.69;95459.91;10483250;28;1908;-59
2022/06/29 13:36:07;;;;;;;;;;;;;;;23.91;53.10;95463.03;10485797;28;1883;-58
2022/06/29 13:41:07;;;;;;;;;;;;;;;23.93;52.59;95455.56;10457352;28;1925;-54
2022/06/29 13:46:08;;;;;;;;;;;;;;;23.92;52.63;95459.31;10474220;28;1722;-59
2022/06/29 13:51:10;;;;;;;;;;;;;;;23.92;52.67;95453.22;10473944;28;1939;-56
2022/06/29 13:56:10;;;;;;;;;;;;;;;23.94;52.82;95456.34;10473550;28;1984;-55
2022/06/29 14:01:10;;;;;;;;;;;;;;;23.95;52.80;95449.97;10480201;28;1932;-56
2022/06/29 14:06:11;;;;;;;;;;;;;;;23.94;52.81;95451.06;10470757;28;1742;-58
2022/06/29 14:11:11;;;;;;;;;;;;;;;23.96;52.67;95449.69;10473385;28;1883;-57
2022/06/29 14:16:11;;;;;;;;;;;;;;;23.94;52.89;95437.81;10481995;28;1910;-57
2022/06/29 14:21:13;;;;;;;;;;;;;;;23.95;52.61;95442.03;10475603;28;1912;-55
2022/06/29 14:26:13;;;;;;;;;;;;;;;23.96;52.69;95440.94;10465241;28;1835;-58
2022/06/29 14:31:14;;;;;;;;;;;;;;;23.98;52.86;95441.44;10474192;28;1804;-55
2022/06/29 14:36:14;;;;;;;;;;;;;;;23.99;52.47;95435.03;10474292;28;1948;-55
2022/06/29 14:41:15;;;;;;;;;;;;;;;23.99;52.57;95429.75;10490060;28;1773;-55
2022/06/29 14:46:15;;;;;;;;;;;;;;;24.00;52.68;95421.53;10484277;28;1876;-55
2022/06/29 14:51:17;;;;;;;;;;;;;;;24.01;52.52;95417.78;10474823;28;1833;-56
2022/06/29 14:56:18;;;;;;;;;;;;;;;24.01;52.47;95414.34;10473577;28;1910;-58
2022/06/29 15:01:20;;;;;;;;;;;;;;;24.02;52.54;95413.25;10462117;28;2174;-57
2022/06/29 15:06:20;;;;;;;;;;;;;;;24.03;52.54;95407.69;10470046;28;1957;-58
2022/06/29 15:11:20;;;;;;;;;;;;;;;24.04;52.64;95396.03;10468286;28;1881;-58
2022/06/29 15:16:21;;;;;;;;;;;;;;;24.05;52.11;95394.16;10468752;28;1910;-59
2022/06/29 15:21:21;;;;;;;;;;;;;;;24.04;52.54;95389.94;10482807;28;1847;-57
2022/06/29 15:26:21;;;;;;;;;;;;;;;24.07;52.58;95392.00;10478902;28;1853;-57
2022/06/29 15:31:21;;;;;;;;;;;;;;;24.09;52.56;95389.81;10475004;28;2161;-59
2022/06/29 15:41:40;;;;;;;;;;;;;;;24.07;52.02;95381.41;10475918;28;2118;-55
2022/06/29 15:46:41;;;;;;;;;;;;;;;24.07;52.33;95382.16;10483931;28;1790;-59
2022/06/29 15:51:41;;;;;;;;;;;;;;;24.09;52.63;95385.28;10478964;28;1698;-58
2022/06/29 15:56:42;;;;;;;;;;;;;;;24.10;52.25;95378.91;10468394;28;1979;-57
2022/06/29 16:01:43;;;;;;;;;;;;;;;24.11;52.80;95369.13;10460790;28;1851;-59
2022/06/29 16:06:43;;;;;;;;;;;;;;;24.12;52.49;95376.75;10476194;28;1941;-54
2022/06/29 16:17:03;;;;;;;;;;;;;;;24.12;52.25;95374.09;10479946;28;1918;-59
2022/06/29 16:22:04;;;;;;;;;;;;;;;24.12;52.35;95374.09;10475245;28;1805;-57
2022/06/29 16:27:04;;;;;;;;;;;;;;;24.11;52.16;95372.53;10475265;28;1809;-59
2022/06/29 16:32:05;;;;;;;;;;;;;;;24.11;52.11;95377.06;10470137;28;1848;-58
2022/06/29 16:37:05;;;;;;;;;;;;;;;24.12;52.06;95371.44;10493534;28;1967;-58
2022/06/29 16:42:05;;;;;;;;;;;;;;;24.12;52.21;95370.66;10478927;28;1672;-58
2022/06/29 16:47:07;;;;;;;;;;;;;;;24.13;52.09;95364.28;10480672;28;2079;-58
2022/06/29 16:52:07;;;;;;;;;;;;;;;24.12;52.03;95355.56;10456459;28;2078;-60
2022/06/29 16:57:07;;;;;;;;;;;;;;;24.12;51.95;95358.22;10458371;28;1983;-57
2022/06/29 17:02:08;;;;;;;;;;;;;;;24.12;51.84;95352.91;10477073;28;1910;-58
2022/06/29 17:07:09;;;;;;;;;;;;;;;24.12;51.84;95341.53;10441155;28;1890;-57
2022/06/29 17:12:09;;;;;;;;;;;;;;;24.13;51.87;95341.22;10481751;28;2029;-56
2022/06/29 17:17:09;;;;;;;;;;;;;;;24.13;52.11;95332.53;10458867;28;1971;-56
2022/06/29 17:22:09;;;;;;;;;;;;;;;24.13;52.00;95333.28;10477952;28;1788;-53
2022/06/29 17:27:10;;;;;;;;;;;;;;;24.15;52.19;95330.34;10473135;28;1891;-57
2022/06/29 17:32:10;;;;;;;;;;;;;;;24.16;52.22;95330.03;10462186;28;1962;-58
2022/06/29 17:37:10;;;;;;;;;;;;;;;24.17;52.17;95317.56;10475247;28;1917;-58
2022/06/29 17:42:11;;;;;;;;;;;;;;;24.18;52.17;95316.47;10466653;28;1945;-58
2022/06/29 17:47:12;;;;;;;;;;;;;;;24.19;52.25;95308.22;10469888;28;1823;-58
2022/06/29 17:52:13;;;;;;;;;;;;;;;24.18;52.12;95304.03;10473905;28;1773;-58
2022/06/29 17:57:13;;;;;;;;;;;;;;;24.18;52.27;95304.03;10468792;28;1988;-59
2022/06/29 18:02:13;;;;;;;;;;;;;;;24.19;52.18;95318.06;10449959;28;1897;-58
2022/06/29 18:07:14;;;;;;;;;;;;;;;24.13;53.20;95325.34;10478220;28;1812;-58
2022/06/29 18:12:15;;;;;;;;;;;;;;;24.11;54.22;95334.69;10476173;28;1786;-59
2022/06/29 18:17:15;;;;;;;;;;;;;;;24.10;54.57;95338.41;10495283;28;1977;-59
2022/06/29 18:22:16;;;;;;;;;;;;;;;24.07;55.01;95341.69;10499456;28;1851;-58
2022/06/29 18:27:16;;;;;;;;;;;;;;;23.96;55.52;95351.72;10491628;28;1947;-58
2022/06/29 18:32:18;;;;;;;;;;;;;;;23.98;55.60;95348.75;10458433;28;1871;-56
2022/06/29 18:37:18;;;;;;;;;;;;;;;23.98;55.57;95359.34;10489314;28;1983;-58
2022/06/29 18:42:18;;;;;;;;;;;;;;;23.91;56.33;95359.00;10453080;28;1865;-57
2022/06/29 18:47:19;;;;;;;;;;;;;;;23.84;56.53;95362.09;10484636;28;1796;-57
2022/06/29 18:52:20;;;;;;;;;;;;;;;23.81;56.82;95362.69;10501304;28;1779;-59
2022/06/29 18:57:20;;;;;;;;;;;;;;;23.76;57.16;95375.28;10511236;28;1909;-58
2022/06/29 19:02:20;;;;;;;;;;;;;;;23.73;57.59;95368.72;10500795;28;1849;-57
2022/06/29 19:07:21;;;;;;;;;;;;;;;23.69;57.81;95370.41;10494822;28;1834;-57
2022/06/29 19:12:21;;;;;;;;;;;;;;;23.65;57.81;95366.81;10496241;28;1939;-56
2022/06/29 19:17:21;;;;;;;;;;;;;;;23.67;57.77;95371.78;10495020;28;1999;-58
2022/06/29 19:22:22;;;;;;;;;;;;;;;23.63;58.10;95365.53;10502513;28;1821;-58
2022/06/29 19:27:22;;;;;;;;;;;;;;;23.60;58.24;95382.78;10492697;28;1816;-60
2022/06/29 19:32:22;;;;;;;;;;;;;;;23.55;58.07;95382.13;10499556;28;1832;-59
2022/06/29 19:37:26;;;;;;;;;;;;;;;23.51;58.16;95387.25;10477100;28;1906;-59
2022/06/29 19:42:27;;;;;;;;;;;;;;;23.48;58.04;95389.69;10509020;28;1760;-59
2022/06/29 19:47:27;;;;;;;;;;;;;;;23.59;57.36;95391.81;10476276;28;1753;-60
2022/06/29 19:52:27;;;;;;;;;;;;;;;23.69;56.85;95396.09;10475160;28;1906;-60
2022/06/29 19:57:27;;;;;;;;;;;;;;;23.74;56.55;95386.16;10492683;28;1984;-60
2022/06/29 20:02:28;;;;;;;;;;;;;;;23.78;56.08;95381.06;10458463;28;1847;-60
2022/06/29 20:07:28;;;;;;;;;;;;;;;23.82;56.20;95390.72;10492544;28;2140;-59
2022/06/29 20:12:29;;;;;;;;;;;;;;;23.86;56.02;95393.56;10474234;28;1828;-59
2022/06/29 20:17:29;;;;;;;;;;;;;;;23.88;55.39;95384.22;10464592;28;1910;-60
2022/06/29 20:22:30;;;;;;;;;;;;;;;23.90;55.71;95387.34;10461073;28;1811;-60
2022/06/29 20:27:31;;;;;;;;;;;;;;;23.94;55.60;95375.06;10479428;28;1847;-59
2022/06/29 20:32:31;;;;;;;;;;;;;;;23.96;55.41;95367.63;10476175;28;1894;-60
2022/06/29 20:37:31;;;;;;;;;;;;;;;23.99;55.47;95374.16;10486385;28;2243;-60
2022/06/29 20:42:32;;;;;;;;;;;;;;;24.01;55.48;95378.06;10460098;28;2003;-59
2022/06/29 20:47:32;;;;;;;;;;;;;;;24.00;55.02;95375.72;10475493;28;1841;-60
2022/06/29 20:52:33;;;;;;;;;;;;;;;24.01;54.86;95377.28;10473412;28;1888;-60
2022/06/29 20:57:33;;;;;;;;;;;;;;;24.01;54.96;95371.97;10479560;28;1914;-59
2022/06/29 21:02:33;;;;;;;;;;;;;;;24.02;54.79;95376.19;10479164;28;1785;-59
2022/06/29 21:07:34;;;;;;;;;;;;;;;24.01;54.66;95370.13;10475546;28;1805;-59
2022/06/29 21:12:35;;;;;;;;;;;;;;;24.01;54.79;95372.75;10469511;28;1924;-61
2022/06/29 21:17:38;;;;;;;;;;;;;;;24.02;54.83;95395.53;10479470;28;1976;-59
2022/06/29 21:22:39;;;;;;;;;;;;;;;24.03;54.72;95394.44;10455585;28;2104;-59
2022/06/29 21:27:39;;;;;;;;;;;;;;;24.05;54.58;95396.81;10453670;28;1819;-59
2022/06/29 21:32:39;;;;;;;;;;;;;;;24.05;54.57;95399.47;10477500;28;1948;-58
2022/06/29 21:37:40;;;;;;;;;;;;;;;24.06;54.57;95401.00;10471724;28;1963;-61
2022/06/29 21:42:41;;;;;;;;;;;;;;;24.03;54.16;95407.69;10474391;28;1971;-57
2022/06/29 21:47:41;;;;;;;;;;;;;;;24.05;54.35;95399.47;10457417;28;1893;-60
2022/06/29 21:52:41;;;;;;;;;;;;;;;24.06;54.41;95409.75;10472924;28;1896;-57
2022/06/29 21:57:42;;;;;;;;;;;;;;;24.04;54.26;95409.25;10470730;28;1930;-58
2022/06/29 22:02:42;;;;;;;;;;;;;;;24.06;54.48;95411.59;10477241;28;1837;-59
2022/06/29 22:07:43;;;;;;;;;;;;;;;24.10;54.51;95409.91;10476040;28;1722;-55
2022/06/29 22:12:43;;;;;;;;;;;;;;;24.10;54.33;95418.63;10465035;28;1892;-61
2022/06/29 22:17:44;;;;;;;;;;;;;;;24.08;54.44;95420.81;10455115;28;1962;-60
2022/06/29 22:22:44;;;;;;;;;;;;;;;24.09;54.59;95426.91;10475953;28;1771;-56
2022/06/29 22:27:44;;;;;;;;;;;;;;;24.11;54.50;95430.03;10453882;28;1785;-60
2022/06/29 22:32:45;;;;;;;;;;;;;;;24.09;54.53;95429.53;10486004;28;1807;-57
2022/06/29 22:37:46;;;;;;;;;;;;;;;24.09;54.41;95429.53;10486261;28;1909;-60
2022/06/29 22:42:47;;;;;;;;;;;;;;;24.09;54.38;95432.94;10475665;28;1835;-58
2022/06/29 22:47:47;;;;;;;;;;;;;;;24.09;54.36;95437.50;10488209;28;1896;-60
2022/06/29 22:52:48;;;;;;;;;;;;;;;24.07;54.16;95437.78;10455863;28;1711;-57
2022/06/29 22:57:49;;;;;;;;;;;;;;;24.05;54.10;95429.34;10451354;28;1922;-58
2022/06/29 23:02:49;;;;;;;;;;;;;;;24.07;53.91;95429.06;10459194;28;2138;-60
2022/06/29 23:07:51;;;;;;;;;;;;;;;24.06;53.98;95409.75;10470583;28;1786;-60
2022/06/29 23:12:51;;;;;;;;;;;;;;;24.06;53.97;95415.03;10471650;28;1835;-60
2022/06/29 23:17:52;;;;;;;;;;;;;;;24.07;54.00;95421.88;10464609;28;1983;-59
2022/06/29 23:22:52;;;;;;;;;;;;;;;24.07;53.90;95416.59;10476522;28;1963;-59
2022/06/29 23:27:52;;;;;;;;;;;;;;;24.07;53.83;95418.47;10467013;28;1901;-59
2022/06/29 23:32:53;;;;;;;;;;;;;;;24.06;53.86;95420.34;10470682;28;1861;-60
2022/06/29 23:37:54;;;;;;;;;;;;;;;24.07;53.84;95407.88;10471565;28;1979;-58
2022/06/29 23:42:54;;;;;;;;;;;;;;;24.07;53.57;95403.34;10447069;28;1952;-59
2022/06/29 23:47:55;;;;;;;;;;;;;;;24.05;53.66;95410.81;10486316;28;2433;-60
2022/06/29 23:52:55;;;;;;;;;;;;;;;24.05;53.63;95413.47;10492545;28;1574;-60
2022/06/29 23:57:55;;;;;;;;;;;;;;;24.05;53.42;95402.09;10486838;28;1972;-60
